バンコク/スワンナプーム の空港の天気 - METARとTAF

スワンナプーム国際空港 ( VTBS / BKK ) - タイ サムットプラーカーン県 (バンコク近郊)
飛行場実況気象(Metar)
観測時間06/23 08:00 ICT (06/23 01:00 UTC)
風向・風速西北西 2m/s
視程10km以上
天気現象
少しの雲 雲底高度 610m
気温28℃
湿度70%
気圧1009hPa
METARVTBS 230100Z 29004KT 260V340 9999 FEW020 28/22 Q1009 NOSIG
過去の天気等 Google飛行場航空写真 Wunderground天気予報

過去48時間のMETAR

飛行場予報(TAF)
発表時間: 6/23 06:00 ICT (6/22 23:00 UTC)
予報対象時間: 23日7時 ICT ~ 24日13時 ICT
風向・風速西 3m/s
視程10km以上
少しの雲 雲底高度 610m
23日11時 ICT ~ 23日13時 ICT に徐々に
風向・風速南南西 5m/s
少しの積乱雲 雲底高度 610m
全天の4割程度の雲 雲底高度 1,070m
23日16時 ICT ~ 23日21時 ICT に一時的に
風向・風速西 8m/s 瞬間風速 13m/s
視程5,000m
天気現象雷雨
少しの積乱雲 雲底高度 550m
全天の4割程度の雲 雲底高度 910m
23日21時 ICT ~ 23日23時 ICT に徐々に
風向・風速西 3m/s
少しの雲 雲底高度 610m
24日9時 ICT ~ 24日11時 ICT に徐々に
少しの雲 雲底高度 610m
全天の4割程度の雲 雲底高度 1,070m
TAF VTBS 222300Z 2300/2406 27005KT 9999 FEW020
BECMG 2304/2306 21010KT FEW020CB SCT035
TEMPO 2309/2314 28015G25KT 5000 TSRA FEW018CB SCT030
BECMG 2314/2316 28005KT FEW020
BECMG 2402/2404 FEW020 SCT035